Time;durP1;ratioP1;P1;durP2;ratioP2;P2;SDS_P1;SDS_P2;PMS_P1;PMS_P2;Temp;Humidity;BMP_temperature;BMP_pressure;BME280_temperature;BME280_humidity;BME280_pressure;Samples;Min_cycle;Max_cycle;Signal;HPM_P1;HPM_P2
2022/05/21 00:01:16;;;;;;;17.95;10.10;;;;;;;9.99;100.00;101815.28;5280879;28;20479;-64
2022/05/21 00:03:47;;;;;;;13.88;8.93;;;;;;;10.05;100.00;101807.88;5267259;28;20048;-64
2022/05/21 00:06:20;;;;;;;14.00;9.38;;;;;;;10.05;100.00;101805.19;5279874;28;20028;-63
2022/05/21 00:08:52;;;;;;;14.05;9.00;;;;;;;10.16;100.00;101805.44;5278368;28;20055;-64
2022/05/21 00:11:23;;;;;;;12.38;8.73;;;;;;;10.02;100.00;101811.59;5278981;28;20024;-64
2022/05/21 00:13:56;;;;;;;14.52;8.02;;;;;;;10.02;100.00;101814.25;5278883;28;20363;-63
2022/05/21 00:16:28;;;;;;;12.85;8.50;;;;;;;9.99;100.00;101817.97;5277672;28;20142;-63
2022/05/21 00:19:00;;;;;;;13.57;8.55;;;;;;;10.01;100.00;101813.41;5275810;28;20024;-64
2022/05/21 00:21:31;;;;;;;11.80;7.88;;;;;;;9.96;100.00;101818.13;5278066;28;20024;-64
2022/05/21 00:24:02;;;;;;;10.60;7.53;;;;;;;10.01;100.00;101816.06;5275947;28;20137;-63
2022/05/21 00:26:34;;;;;;;11.20;7.28;;;;;;;10.01;100.00;101818.72;5277331;28;20155;-64
2022/05/21 00:29:05;;;;;;;14.00;7.18;;;;;;;10.01;100.00;101813.41;5280068;28;20470;-63
2022/05/21 00:31:36;;;;;;;11.18;6.82;;;;;;;9.99;100.00;101815.28;5279811;28;20063;-64
2022/05/21 00:34:07;;;;;;;11.80;6.65;;;;;;;9.93;100.00;101821.00;5276790;28;20120;-64
2022/05/21 00:36:39;;;;;;;14.40;7.00;;;;;;;9.89;100.00;101816.75;5279222;28;20028;-64
2022/05/21 00:39:10;;;;;;;10.50;6.28;;;;;;;10.01;100.00;101825.88;5279254;28;20141;-63
2022/05/21 00:41:42;;;;;;;10.05;6.80;;;;;;;10.07;100.00;101816.63;5269931;28;20041;-64
2022/05/21 00:44:13;;;;;;;10.88;6.30;;;;;;;10.02;100.00;101820.44;5275671;28;20021;-64
2022/05/21 00:46:45;;;;;;;8.82;5.78;;;;;;;10.20;100.00;101817.63;5278073;28;20119;-64
2022/05/21 00:49:39;;;;;;;10.73;5.85;;;;;;;10.16;100.00;101834.75;5277849;28;20094;-64
2022/05/21 00:52:14;;;;;;;11.20;5.95;;;;;;;10.29;100.00;101826.91;5278722;28;20482;-64
2022/05/21 00:54:50;;;;;;;9.77;5.80;;;;;;;10.29;100.00;101822.41;5270926;28;20036;-64
2022/05/21 00:57:37;;;;;;;7.97;4.95;;;;;;;10.34;100.00;101828.38;5279040;28;20491;-64
2022/05/21 01:00:19;;;;;;;11.27;5.00;;;;;;;10.44;100.00;101817.16;5279309;28;20040;-64
2022/05/21 01:02:56;;;;;;;8.68;5.25;;;;;;;10.46;100.00;101826.78;5277567;28;20043;-64
2022/05/21 01:05:28;;;;;;;10.77;4.95;;;;;;;10.49;100.00;101823.94;5276495;28;20036;-64
2022/05/21 01:08:01;;;;;;;9.93;5.00;;;;;;;10.51;100.00;101818.50;5276686;28;20061;-64
2022/05/21 01:10:37;;;;;;;10.15;5.15;;;;;;;10.55;100.00;101817.38;5267616;28;20413;-64
2022/05/21 01:13:13;;;;;;;8.68;4.72;;;;;;;10.59;100.00;101825.09;5279110;28;20036;-63
2022/05/21 01:15:48;;;;;;;10.30;4.57;;;;;;;10.60;100.00;101823.25;5277244;28;20048;-64
2022/05/21 01:18:20;;;;;;;10.07;4.25;;;;;;;10.65;100.00;101818.50;5278190;28;20035;-64
2022/05/21 01:21:00;;;;;;;9.20;4.18;;;;;;;10.70;100.00;101818.22;5277393;28;20332;-64
2022/05/21 01:23:32;;;;;;;10.23;3.97;;;;;;;10.67;100.00;101819.28;5274989;28;20517;-64
2022/05/21 01:26:07;;;;;;;8.60;4.22;;;;;;;10.67;100.00;101819.28;5278499;28;20024;-64
2022/05/21 01:28:38;;;;;;;9.25;4.20;;;;;;;10.71;100.00;101819.94;5278053;28;20024;-64
2022/05/21 01:31:10;;;;;;;9.10;3.97;;;;;;;10.72;100.00;101811.84;5278062;28;20028;-64
2022/05/21 01:33:44;;;;;;;6.10;3.70;;;;;;;10.84;100.00;101809.38;5270327;28;20075;-64
2022/05/21 01:36:16;;;;;;;;;;;;;;;10.86;100.00;101812.81;5273963;28;20044;-64
2022/05/21 01:38:49;;;;;;;10.45;3.80;;;;;;;10.83;100.00;101813.00;5273615;28;19921;-64
2022/05/21 01:41:20;;;;;;;9.00;4.50;;;;;;;10.90;100.00;101822.34;5278395;28;20518;-64
2022/05/21 01:46:46;;;;;;;7.13;3.65;;;;;;;10.96;100.00;101812.13;5265614;28;20055;-63
2022/05/21 01:49:17;;;;;;;10.30;4.22;;;;;;;10.89;100.00;101809.94;5277173;28;20024;-64
2022/05/21 01:51:48;;;;;;;9.95;3.70;;;;;;;10.92;100.00;101809.75;5276042;28;20028;-63
2022/05/21 01:54:20;;;;;;;10.20;4.15;;;;;;;11.01;100.00;101809.19;5276178;28;20113;-64
2022/05/21 01:56:51;;;;;;;9.18;4.15;;;;;;;10.98;100.00;101806.69;5276675;28;20051;-64
2022/05/21 01:59:23;;;;;;;11.20;4.50;;;;;;;10.98;100.00;101810.22;5278180;28;20446;-64
2022/05/21 02:01:54;;;;;;;13.55;4.50;;;;;;;10.99;100.00;101808.44;5275373;28;20417;-64
2022/05/21 02:04:25;;;;;;;8.02;4.10;;;;;;;11.01;100.00;101814.53;5273905;28;20236;-64
2022/05/21 02:06:57;;;;;;;9.90;4.80;;;;;;;11.09;100.00;101812.22;5277808;28;20024;-64
2022/05/21 02:09:28;;;;;;;9.80;4.40;;;;;;;11.11;100.00;101812.13;5276525;28;20111;-63
2022/05/21 02:12:00;;;;;;;9.57;3.95;;;;;;;11.06;100.00;101819.56;5274814;28;20039;-63
2022/05/21 02:14:32;;;;;;;11.10;4.20;;;;;;;11.10;100.00;101821.09;5276851;28;20474;-64
2022/05/21 02:17:03;;;;;;;8.50;4.40;;;;;;;11.23;100.00;101823.84;5277627;28;20025;-63
2022/05/21 02:19:34;;;;;;;12.13;4.05;;;;;;;11.16;100.00;101824.25;5275824;28;20033;-64
2022/05/21 02:22:06;;;;;;;9.02;4.03;;;;;;;11.12;100.00;101829.84;5277310;28;20055;-64
2022/05/21 02:24:37;;;;;;;10.25;4.13;;;;;;;11.28;100.00;101821.75;5277095;28;20056;-63
2022/05/21 02:27:13;;;;;;;9.55;4.18;;;;;;;11.24;100.00;101820.19;5276016;28;20139;-64
2022/05/21 02:29:45;;;;;;;11.50;4.43;;;;;;;11.25;100.00;101820.09;5277423;28;20425;-63
2022/05/21 02:32:17;;;;;;;11.95;4.07;;;;;;;11.18;100.00;101825.00;5276718;28;20100;-64
2022/05/21 02:34:48;;;;;;;8.32;3.83;;;;;;;11.23;100.00;101823.84;5275209;28;20505;-63
2022/05/21 02:40:09;;;;;;;10.32;4.13;;;;;;;11.14;100.00;101819.94;5272928;28;20040;-63
2022/05/21 02:42:43;;;;;;;9.40;4.05;;;;;;;11.32;100.00;101809.91;5274448;28;20376;-63
2022/05/21 02:45:23;;;;;;;8.02;4.28;;;;;;;11.19;100.00;101817.84;5275508;28;20021;-63
2022/05/21 02:47:55;;;;;;;14.20;4.70;;;;;;;11.18;100.00;101819.66;5276026;28;20025;-63
2022/05/21 02:50:33;;;;;;;12.23;4.70;;;;;;;11.27;100.00;101814.66;5275757;28;20033;-63
2022/05/21 02:53:07;;;;;;;10.05;4.47;;;;;;;11.25;100.00;101813.91;5276797;28;20035;-63
2022/05/21 02:55:38;;;;;;;9.70;4.60;;;;;;;11.31;100.00;101818.88;5276800;28;20040;-63
2022/05/21 02:58:09;;;;;;;9.13;4.10;;;;;;;11.27;100.00;101820.88;5276741;28;20493;-63
2022/05/21 03:00:42;;;;;;;10.27;4.07;;;;;;;11.23;100.00;101823.84;5275139;28;20489;-63
2022/05/21 03:03:14;;;;;;;9.57;4.40;;;;;;;11.20;100.00;101824.91;5273928;28;20016;-63
2022/05/21 03:05:45;;;;;;;12.57;4.20;;;;;;;11.26;100.00;101824.50;5279689;28;20130;-63
2022/05/21 03:11:07;;;;;;;8.52;4.20;;;;;;;11.25;100.00;101822.78;5281173;28;20393;-64
2022/05/21 03:13:39;;;;;;;15.43;5.07;;;;;;;11.24;100.00;101820.19;5280775;28;20025;-63
2022/05/21 03:16:11;;;;;;;9.02;4.40;;;;;;;11.34;100.00;101824.03;5280650;28;20032;-63
2022/05/21 03:18:42;;;;;;;10.95;4.72;;;;;;;11.36;100.00;101819.44;5279529;28;20051;-63
2022/05/21 03:21:14;;;;;;;12.27;5.25;;;;;;;11.26;100.00;101815.66;5279446;28;20054;-63
2022/05/21 03:23:45;;;;;;;12.10;4.32;;;;;;;11.25;100.00;101816.59;5279897;28;20169;-63
2022/05/21 03:26:17;;;;;;;14.93;5.18;;;;;;;11.28;100.00;101816.41;5280938;28;20035;-63
2022/05/21 03:28:48;;;;;;;14.70;5.40;;;;;;;11.33;100.00;101809.81;5279816;28;20111;-63
2022/05/21 03:31:19;;;;;;;14.55;5.03;;;;;;;11.29;100.00;101820.78;5281307;28;20024;-63
2022/05/21 03:33:50;;;;;;;12.13;5.85;;;;;;;11.27;100.00;101810.19;5273321;28;20028;-63
2022/05/21 03:36:22;;;;;;;11.98;5.10;;;;;;;11.32;100.00;101817.91;5279444;28;20063;-63
2022/05/21 03:38:55;;;;;;;13.15;5.97;;;;;;;11.31;100.00;101819.75;5277510;28;20340;-63
2022/05/21 03:41:27;;;;;;;11.93;4.97;;;;;;;11.29;100.00;101831.47;5281025;28;20032;-63
2022/05/21 03:44:00;;;;;;;10.27;5.43;;;;;;;11.28;100.00;101821.75;5275852;28;20047;-63
2022/05/21 03:46:32;;;;;;;12.55;5.22;;;;;;;11.37;100.00;101821.13;5279503;28;20077;-63
2022/05/21 03:49:07;;;;;;;12.23;5.55;;;;;;;11.42;100.00;101829.72;5279385;28;20020;-63
2022/05/21 03:51:39;;;;;;;12.05;5.07;;;;;;;11.39;100.00;101832.59;5279550;28;20047;-63
2022/05/21 03:54:10;;;;;;;15.35;5.40;;;;;;;11.33;100.00;101836.53;5280427;28;20453;-63
2022/05/21 03:56:41;;;;;;;11.48;5.00;;;;;;;11.33;100.00;101831.19;5279067;28;20553;-63
2022/05/21 03:59:13;;;;;;;12.63;4.78;;;;;;;11.44;100.00;101843.84;5279517;28;20028;-63
2022/05/21 04:01:45;;;;;;;13.73;4.55;;;;;;;11.38;100.00;101846.91;5279330;28;20036;-63
2022/05/21 04:04:17;;;;;;;11.68;4.63;;;;;;;11.33;100.00;101838.31;5278786;28;20417;-63
2022/05/21 04:06:48;;;;;;;13.35;4.95;;;;;;;11.44;100.00;101841.16;5279623;28;20032;-63
2022/05/21 04:09:19;;;;;;;12.40;4.75;;;;;;;11.41;100.00;101849.41;5279772;28;20086;-63
2022/05/21 04:11:51;;;;;;;15.38;5.82;;;;;;;11.38;100.00;101846.91;5279016;28;20032;-63
2022/05/21 04:14:30;;;;;;;13.68;5.53;;;;;;;11.37;100.00;101848.72;5268001;28;20028;-63
2022/05/21 04:17:03;;;;;;;10.93;5.15;;;;;;;11.42;100.00;101844.91;5280057;28;20032;-63
2022/05/21 04:19:34;;;;;;;17.58;5.72;;;;;;;11.42;100.00;101856.44;5276866;28;20035;-63
2022/05/21 04:22:07;;;;;;;12.30;5.03;;;;;;;11.46;100.00;101851.75;5279861;28;20036;-63
2022/05/21 04:24:38;;;;;;;14.77;5.30;;;;;;;11.43;100.00;101866.19;5276491;28;20036;-63
2022/05/21 04:27:10;;;;;;;13.90;5.70;;;;;;;11.56;100.00;101850.22;5279097;28;20490;-63
2022/05/21 04:29:41;;;;;;;14.60;5.90;;;;;;;11.46;100.00;101857.09;5278800;28;20020;-63
2022/05/21 04:32:12;;;;;;;13.55;5.95;;;;;;;11.57;100.00;101850.13;5279408;28;20040;-63
2022/05/21 04:34:43;;;;;;;14.75;6.00;;;;;;;11.57;100.00;101860.81;5276786;28;20489;-64
2022/05/21 04:37:15;;;;;;;14.68;5.65;;;;;;;11.51;100.00;101869.22;5280011;28;20032;-64
2022/05/21 04:39:46;;;;;;;18.30;6.18;;;;;;;11.52;100.00;101864.72;5278279;28;20025;-63
2022/05/21 04:42:17;;;;;;;19.13;7.50;;;;;;;11.67;100.00;101865.56;5279690;28;20024;-64
2022/05/21 04:44:48;;;;;;;17.15;6.53;;;;;;;11.52;100.00;101865.56;5277696;28;20097;-64
2022/05/21 04:47:20;;;;;;;15.48;6.43;;;;;;;11.56;100.00;101872.47;5278223;28;20029;-64
2022/05/21 04:49:51;;;;;;;19.17;6.75;;;;;;;11.64;100.00;101876.44;5277948;28;20017;-64
2022/05/21 04:52:22;;;;;;;13.95;6.03;;;;;;;11.63;100.00;101864.91;5279124;28;20052;-64
2022/05/21 04:54:54;;;;;;;18.20;7.10;;;;;;;11.63;100.00;101870.25;5277962;28;20060;-63
2022/05/21 04:57:25;;;;;;;14.25;6.53;;;;;;;11.62;100.00;101868.53;5278866;28;20550;-63
2022/05/21 04:59:56;;;;;;;14.27;7.32;;;;;;;11.63;100.00;101872.91;5277443;28;20066;-64
2022/05/21 05:02:27;;;;;;;16.35;7.55;;;;;;;11.64;100.00;101882.66;5273173;28;20040;-64
2022/05/21 05:04:59;;;;;;;18.10;7.63;;;;;;;11.78;100.00;101877.28;5276711;28;20021;-63
2022/05/21 05:07:30;;;;;;;17.75;8.48;;;;;;;11.87;100.00;101881.19;5278060;28;20110;-64
2022/05/21 05:10:02;;;;;;;20.35;9.35;;;;;;;11.86;100.00;101882.13;5278751;28;20031;-63
2022/05/21 05:12:34;;;;;;;21.17;9.38;;;;;;;11.93;100.00;101875.44;5278465;28;20462;-63
2022/05/21 05:15:05;;;;;;;23.27;9.75;;;;;;;11.92;100.00;101888.91;5276407;28;20043;-63
2022/05/21 05:17:36;;;;;;;20.35;9.50;;;;;;;12.07;100.00;101893.25;5278499;28;20126;-63
2022/05/21 05:20:08;;;;;;;20.08;9.50;;;;;;;12.06;100.00;101894.22;5277840;28;20016;-64
2022/05/21 05:22:39;;;;;;;21.65;9.70;;;;;;;12.03;100.00;101890.91;5276115;28;20107;-64
2022/05/21 05:25:11;;;;;;;18.65;8.88;;;;;;;12.04;100.00;101889.91;5268478;28;20111;-64
2022/05/21 05:27:42;;;;;;;16.35;8.73;;;;;;;12.06;100.00;101902.25;5278210;28;20023;-64
2022/05/21 05:30:15;;;;;;;18.90;9.50;;;;;;;12.09;100.00;101890.47;5276948;28;20035;-63
2022/05/21 05:32:46;;;;;;;24.30;10.43;;;;;;;12.14;100.00;101901.75;5277562;28;20033;-64
2022/05/21 05:35:19;;;;;;;24.77;10.65;;;;;;;12.17;100.00;101901.53;5269847;28;20025;-63
2022/05/21 05:37:50;;;;;;;24.98;10.95;;;;;;;12.34;100.00;101914.63;5276520;28;20032;-63
2022/05/21 05:40:21;;;;;;;23.63;11.45;;;;;;;12.27;100.00;101913.34;5278085;28;20024;-64
2022/05/21 05:42:53;;;;;;;20.17;10.00;;;;;;;12.28;100.00;101909.69;5276670;28;20032;-64
2022/05/21 05:45:24;;;;;;;19.95;9.80;;;;;;;12.38;100.00;101906.41;5277080;28;20466;-63
2022/05/21 05:47:56;;;;;;;21.88;9.57;;;;;;;12.56;100.00;101913.22;5277526;28;20043;-63
2022/05/21 05:50:27;;;;;;;20.60;10.10;;;;;;;12.54;100.00;101909.75;5276548;28;20541;-63
2022/05/21 05:53:03;;;;;;;22.90;11.18;;;;;;;12.63;100.00;101909.13;5277970;28;20040;-64
2022/05/21 05:55:36;;;;;;;19.65;10.40;;;;;;;12.70;100.00;101909.59;5276838;28;20028;-64
2022/05/21 06:00:57;;;;;;;18.67;10.95;;;;;;;12.53;100.00;101913.41;5265977;28;20028;-64
2022/05/21 06:03:28;;;;;;;21.42;10.90;;;;;;;12.58;100.00;101913.97;5274500;28;20020;-64
2022/05/21 06:05:59;;;;;;;21.20;11.07;;;;;;;12.64;100.00;101929.59;5276463;28;20060;-64
2022/05/21 06:08:31;;;;;;;20.77;11.80;;;;;;;12.56;100.00;101923.94;5277455;28;20032;-64
2022/05/21 06:11:02;;;;;;;22.63;11.68;;;;;;;12.64;100.00;101926.09;5276904;28;20119;-64
2022/05/21 06:13:34;;;;;;;24.20;12.30;;;;;;;12.71;100.00;101920.22;5276877;28;20028;-64
2022/05/21 06:16:05;;;;;;;22.20;11.85;;;;;;;12.90;100.00;101926.94;5276163;28;20036;-64
2022/05/21 06:18:36;;;;;;;23.85;11.68;;;;;;;12.98;100.00;101913.03;5276284;28;20047;-64
2022/05/21 06:21:08;;;;;;;21.58;12.70;;;;;;;13.05;100.00;101920.53;5274869;28;20028;-64
2022/05/21 06:23:39;;;;;;;20.90;11.73;;;;;;;13.10;100.00;101928.25;5276537;28;20059;-63
2022/05/21 06:26:13;;;;;;;26.83;12.25;;;;;;;13.08;100.00;101923.00;5276212;28;20024;-64
2022/05/21 06:28:44;;;;;;;25.38;12.02;;;;;;;13.08;100.00;101931.03;5276319;28;20043;-64
2022/05/21 06:31:16;;;;;;;21.60;11.77;;;;;;;13.02;100.00;101933.28;5265827;28;20391;-64
2022/05/21 06:33:48;;;;;;;23.98;12.13;;;;;;;12.94;100.00;101940.03;5276529;28;20036;-64
2022/05/21 06:36:19;;;;;;;25.02;12.00;;;;;;;12.99;100.00;101936.19;5276035;28;20028;-64
2022/05/21 06:38:50;;;;;;;22.50;12.52;;;;;;;13.14;100.00;101938.66;5282735;28;20051;-64
2022/05/21 06:41:22;;;;;;;24.65;12.25;;;;;;;13.24;100.00;101940.69;5284108;28;20028;-64
2022/05/21 06:43:54;;;;;;;20.10;11.60;;;;;;;13.41;99.95;101940.38;5283498;28;20051;-64
2022/05/21 06:46:25;;;;;;;22.05;12.80;;;;;;;13.68;100.00;101944.75;5282778;28;20043;-64
2022/05/21 06:48:56;;;;;;;22.52;11.23;;;;;;;13.82;99.73;101944.59;5283190;28;20054;-63
2022/05/21 06:51:28;;;;;;;25.33;12.95;;;;;;;13.85;96.95;101952.41;5281146;28;20238;-64
2022/05/21 06:53:59;;;;;;;24.67;11.93;;;;;;;14.04;96.45;101956.47;5283494;28;20028;-63
2022/05/21 06:56:30;;;;;;;23.48;11.15;;;;;;;14.09;94.75;101948.91;5284023;28;20035;-63
2022/05/21 06:59:01;;;;;;;22.33;11.90;;;;;;;14.08;94.81;101948.06;5282016;28;20025;-63
2022/05/21 07:01:33;;;;;;;22.35;12.90;;;;;;;14.06;95.66;101949.16;5271674;28;20032;-63
2022/05/21 07:04:04;;;;;;;23.17;12.85;;;;;;;14.10;96.09;101959.53;5282880;28;20029;-64
2022/05/21 07:09:27;;;;;;;24.83;13.52;;;;;;;14.13;95.29;101966.50;5284342;28;20028;-64
2022/05/21 07:11:58;;;;;;;25.88;12.98;;;;;;;14.26;97.27;101966.44;5283790;28;20021;-64
2022/05/21 07:14:30;;;;;;;24.60;13.07;;;;;;;14.21;93.70;101969.50;5281145;28;20055;-63
2022/05/21 07:17:01;;;;;;;21.23;12.88;;;;;;;14.40;95.30;101963.59;5284528;28;20363;-63
2022/05/21 07:19:35;;;;;;;22.77;13.38;;;;;;;14.44;93.21;101974.94;5282189;28;20382;-64
2022/05/21 07:22:06;;;;;;;23.40;12.68;;;;;;;14.42;92.16;101980.47;5282796;28;20089;-63
2022/05/21 07:24:40;;;;;;;22.40;11.73;;;;;;;14.55;93.03;101983.06;5275580;28;20044;-63
2022/05/21 07:27:12;;;;;;;26.40;13.05;;;;;;;14.61;93.29;101982.66;5284139;28;20085;-64
2022/05/21 07:29:44;;;;;;;24.00;12.70;;;;;;;14.72;91.58;101986.34;5282425;28;20490;-64
2022/05/21 07:32:24;;;;;;;22.88;12.45;;;;;;;14.71;90.76;101982.81;5283714;28;20294;-64
2022/05/21 07:34:57;;;;;;;22.60;12.77;;;;;;;14.76;90.00;101982.44;5280525;28;20378;-63
2022/05/21 07:37:28;;;;;;;23.55;12.40;;;;;;;14.78;90.67;101984.03;5283636;28;20020;-63
2022/05/21 07:40:00;;;;;;;23.10;12.57;;;;;;;14.87;90.27;101983.34;5282986;28;20040;-63
2022/05/21 07:42:32;;;;;;;23.98;12.60;;;;;;;14.87;88.41;101983.34;5282836;28;20028;-63
2022/05/21 07:45:08;;;;;;;23.73;13.00;;;;;;;14.87;88.19;101993.25;5283733;28;20031;-63
2022/05/21 07:47:40;;;;;;;24.27;12.88;;;;;;;14.79;89.20;101984.91;5271412;28;20035;-63
2022/05/21 07:50:12;;;;;;;20.15;12.48;;;;;;;14.82;89.30;101990.91;5276580;28;20557;-63
2022/05/21 07:52:43;;;;;;;23.17;13.48;;;;;;;15.07;90.38;101995.25;5269158;28;20075;-64
2022/05/21 07:55:15;;;;;;;23.73;12.90;;;;;;;15.02;87.42;101986.69;5280022;28;20371;-63
2022/05/21 07:57:46;;;;;;;23.35;12.13;;;;;;;15.15;89.41;101988.41;5278682;28;20535;-63
2022/05/21 08:00:18;;;;;;;22.25;11.60;;;;;;;15.21;86.97;101994.19;5279542;28;20056;-63
2022/05/21 08:02:49;;;;;;;23.23;11.05;;;;;;;15.40;88.45;101996.28;5279218;28;20032;-64
2022/05/21 08:05:21;;;;;;;20.70;10.77;;;;;;;15.39;87.53;102002.63;5278479;28;20025;-64
2022/05/21 08:07:52;;;;;;;17.52;9.52;;;;;;;15.38;85.07;102000.94;5279409;28;20031;-64
2022/05/21 08:10:24;;;;;;;20.33;9.70;;;;;;;15.35;83.23;102001.16;5279625;28;20028;-64
2022/05/21 08:12:55;;;;;;;17.63;9.48;;;;;;;15.52;85.95;102001.69;5277050;28;20475;-64
2022/05/21 08:15:27;;;;;;;15.20;8.70;;;;;;;15.65;82.62;101999.72;5280219;28;20466;-64
2022/05/21 08:17:59;;;;;;;17.25;9.80;;;;;;;15.95;84.22;102007.19;5278034;28;20033;-64
2022/05/21 08:20:35;;;;;;;18.88;10.43;;;;;;;16.04;82.71;102006.44;5278251;28;20082;-66
2022/05/21 08:28:50;;;;;;;18.27;9.40;;;;;;;16.48;80.61;102014.56;5279101;28;20366;-64
2022/05/21 08:31:22;;;;;;;18.05;9.50;;;;;;;16.54;78.53;102018.56;5279676;28;20036;-64
2022/05/21 08:33:53;;;;;;;17.25;11.55;;;;;;;16.64;78.44;102014.13;5275984;28;20662;-64
2022/05/21 08:36:24;;;;;;;14.73;10.02;;;;;;;16.85;77.52;102014.19;5279585;28;20496;-64
2022/05/21 08:38:55;;;;;;;21.25;10.00;;;;;;;16.97;76.47;102013.16;5278118;28;20069;-64
2022/05/21 08:41:33;;;;;;;17.70;9.45;;;;;;;16.91;77.09;102016.34;5278392;28;20106;-64
2022/05/21 08:44:09;;;;;;;17.42;10.57;;;;;;;16.84;77.72;102020.59;5273062;28;20020;-64
2022/05/21 08:47:01;;;;;;;18.63;9.75;;;;;;;16.60;77.35;102023.44;5278777;28;20031;-64
2022/05/21 08:49:45;;;;;;;20.00;10.10;;;;;;;16.51;77.07;102018.81;5272375;28;20494;-64
2022/05/21 08:52:38;;;;;;;18.60;10.23;;;;;;;16.49;78.67;102015.41;5277340;28;20024;-64
2022/05/21 08:55:18;;;;;;;16.33;9.82;;;;;;;16.36;78.11;102011.03;5278447;28;20036;-64
2022/05/21 08:58:03;;;;;;;19.58;11.27;;;;;;;16.29;78.72;102017.06;5271974;28;20032;-64
2022/05/21 09:00:42;;;;;;;19.45;11.20;;;;;;;16.25;79.93;102011.91;5267656;28;20109;-64
2022/05/21 09:03:17;;;;;;;17.85;11.18;;;;;;;16.33;80.36;102005.06;5274380;28;20479;-64
2022/05/21 09:06:09;;;;;;;17.67;9.85;;;;;;;16.38;79.65;102001.00;5278067;28;20394;-64
2022/05/21 09:08:55;;;;;;;18.65;9.10;;;;;;;16.63;76.96;102005.19;5278730;28;20028;-64
2022/05/21 09:11:35;;;;;;;16.95;8.90;;;;;;;16.80;76.32;102002.94;5277863;28;20067;-64
2022/05/21 09:14:22;;;;;;;16.85;9.57;;;;;;;16.78;76.80;102011.13;5269089;28;20037;-64
2022/05/21 09:16:54;;;;;;;16.92;9.77;;;;;;;16.92;74.17;101998.38;5264969;28;20103;-64
2022/05/21 09:19:31;;;;;;;16.77;9.25;;;;;;;17.04;74.67;101992.75;5277100;28;20119;-64
2022/05/21 09:22:05;;;;;;;16.98;8.05;;;;;;;17.09;72.78;101999.63;5278110;28;20036;-64
2022/05/21 09:24:44;;;;;;;17.50;7.45;;;;;;;17.19;72.16;101987.03;5277892;28;20068;-64
2022/05/21 09:27:33;;;;;;;15.77;7.68;;;;;;;17.28;73.43;101986.25;5274355;28;20036;-64
2022/05/21 09:30:16;;;;;;;12.13;6.88;;;;;;;17.24;73.32;101990.22;5278626;28;20025;-64
2022/05/21 09:32:52;;;;;;;12.25;6.28;;;;;;;17.08;71.96;101996.06;5278183;28;20025;-64
2022/05/21 09:35:32;;;;;;;14.23;6.38;;;;;;;17.15;72.83;101999.94;5265623;28;20071;-64
2022/05/21 09:38:15;;;;;;;13.82;6.93;;;;;;;17.38;73.90;101997.09;5266647;28;20474;-64
2022/05/21 09:40:46;;;;;;;12.30;6.22;;;;;;;17.56;70.06;101998.16;5276993;28;20028;-63
2022/05/21 09:46:15;;;;;;;12.68;5.25;;;;;;;17.54;69.75;101988.50;5266735;28;20032;-64
2022/05/21 09:48:47;;;;;;;12.77;5.40;;;;;;;17.24;69.59;102009.09;5275902;28;20035;-64
2022/05/21 09:51:31;;;;;;;14.25;6.15;;;;;;;16.96;73.13;102003.34;5267437;28;20544;-64
2022/05/21 09:54:21;;;;;;;12.73;5.72;;;;;;;16.85;74.46;102006.09;5277193;28;20374;-64
2022/05/21 09:56:55;;;;;;;11.32;5.15;;;;;;;16.77;73.01;102014.81;5273692;28;20028;-64
2022/05/21 09:59:30;;;;;;;13.60;5.35;;;;;;;16.91;71.47;102007.41;5275681;28;20434;-64
2022/05/21 10:02:15;;;;;;;14.85;5.78;;;;;;;17.04;71.95;102005.38;5278209;28;20047;-64
2022/05/21 10:04:53;;;;;;;16.58;5.40;;;;;;;17.27;73.40;101998.00;5276166;28;20054;-64
2022/05/21 10:13:24;;;;;;;14.27;6.38;;;;;;;17.10;68.71;102022.88;5275625;28;20570;-64
2022/05/21 10:16:03;;;;;;;14.27;6.63;;;;;;;17.21;70.35;102017.44;5277436;28;20108;-64
2022/05/21 10:18:39;;;;;;;13.73;7.10;;;;;;;17.42;72.25;102015.56;5275814;28;20477;-64
2022/05/21 10:21:35;;;;;;;13.48;6.50;;;;;;;17.68;72.83;102009.75;5277529;28;20024;-64
2022/05/21 10:24:30;;;;;;;14.45;6.72;;;;;;;17.55;69.60;102019.91;5261861;28;20490;-64
2022/05/21 10:27:19;;;;;;;16.92;9.25;;;;;;;17.27;68.48;102008.81;5257846;28;20051;-64
2022/05/21 10:30:09;;;;;;;16.40;9.43;;;;;;;17.42;71.77;102015.56;5277297;28;20551;-64
2022/05/21 10:33:07;;;;;;;22.35;10.45;;;;;;;17.44;70.56;102010.03;5272177;28;20498;-64
2022/05/21 10:36:03;;;;;;;16.02;9.25;;;;;;;17.78;73.27;102004.38;5271534;28;20028;-64
2022/05/21 10:38:57;;;;;;;11.07;7.68;;;;;;;17.83;69.42;102013.78;5276306;28;20394;-64
2022/05/21 10:41:55;;;;;;;15.93;7.32;;;;;;;17.95;69.21;102009.16;5277388;28;20044;-64
2022/05/21 10:44:43;;;;;;;12.07;5.70;;;;;;;17.86;69.97;102011.84;5276478;28;20496;-64
2022/05/21 10:47:41;;;;;;;12.43;5.32;;;;;;;17.85;67.89;102018.22;5277454;28;20017;-64
2022/05/21 10:50:23;;;;;;;15.80;5.95;;;;;;;18.20;68.57;102015.06;5267219;28;20410;-64
2022/05/21 10:52:54;;;;;;;12.20;6.43;;;;;;;18.36;70.76;102006.41;5275875;28;20035;-64
2022/05/21 10:55:31;;;;;;;11.70;7.10;;;;;;;18.21;66.84;102011.34;5276479;28;20024;-64
2022/05/21 10:58:18;;;;;;;12.10;4.70;;;;;;;18.31;67.51;102014.91;5276467;28;20336;-64
2022/05/21 11:01:11;;;;;;;9.35;4.22;;;;;;;18.36;66.53;102015.38;5272867;28;20114;-64
2022/05/21 11:04:16;;;;;;;12.70;5.38;;;;;;;18.34;63.27;102019.22;5275991;28;20064;-64
2022/05/21 11:07:08;;;;;;;10.52;4.25;;;;;;;18.22;64.94;102019.31;5276084;28;20653;-64
2022/05/21 11:09:48;;;;;;;10.10;3.70;;;;;;;18.12;63.88;102025.69;5271477;28;20060;-64
2022/05/21 11:12:30;;;;;;;10.75;4.78;;;;;;;18.23;64.55;102012.91;5277158;28;20035;-64
2022/05/21 11:15:33;;;;;;;9.30;4.30;;;;;;;18.42;65.96;102024.75;5275702;28;20039;-64
2022/05/21 11:18:24;;;;;;;14.70;5.15;;;;;;;18.37;65.41;102016.22;5274423;28;20031;-64
2022/05/21 11:21:01;;;;;;;10.02;4.55;;;;;;;18.69;68.60;102015.97;5275360;28;20032;-64
2022/05/21 11:23:41;;;;;;;11.95;4.47;;;;;;;18.64;63.18;102022.78;5278035;28;20394;-64
2022/05/21 11:26:37;;;;;;;9.32;3.38;;;;;;;18.63;59.93;102018.38;5280499;28;20364;-64
2022/05/21 11:29:35;;;;;;;10.48;3.78;;;;;;;18.67;62.29;102017.09;5280014;28;20482;-64
2022/05/21 11:38:20;;;;;;;8.85;3.40;;;;;;;18.93;64.47;102017.44;5281384;28;20059;-64
2022/05/21 11:40:51;;;;;;;;;;;;;;;19.04;65.04;102011.00;5278668;28;20115;-64
2022/05/21 11:43:22;;;;;;;7.78;3.17;;;;;;;19.00;62.84;102003.19;5280531;28;20161;-64
2022/05/21 11:46:05;;;;;;;9.18;3.55;;;;;;;18.99;61.38;102017.69;5278790;28;20024;-64
2022/05/21 11:48:37;;;;;;;8.73;3.15;;;;;;;19.12;61.21;102019.22;5278981;28;20071;-64
2022/05/21 11:51:17;;;;;;;10.52;3.45;;;;;;;19.24;61.94;102011.81;5280898;28;20024;-64
2022/05/21 11:53:48;;;;;;;8.50;3.60;;;;;;;19.24;60.85;102004.56;5279782;28;20033;-64
2022/05/21 11:56:20;;;;;;;9.18;3.25;;;;;;;19.21;60.40;102004.84;5274737;28;20054;-64
2022/05/21 11:59:00;;;;;;;8.18;3.55;;;;;;;19.43;62.14;102000.94;5279965;28;20378;-64
2022/05/21 12:01:38;;;;;;;10.90;4.22;;;;;;;19.43;60.22;102008.22;5280190;28;20394;-64
2022/05/21 12:04:44;;;;;;;8.50;3.38;;;;;;;19.19;56.68;102005.00;5278544;28;20029;-64
2022/05/21 12:07:36;;;;;;;8.75;3.50;;;;;;;19.03;58.95;102001.19;5274013;28;20043;-64
2022/05/21 12:10:19;;;;;;;10.10;5.00;;;;;;;18.98;58.35;101997.06;5277670;28;20028;-63
2022/05/21 12:13:05;;;;;;;8.07;3.30;;;;;;;19.12;60.74;102001.16;5279672;28;20041;-64
2022/05/21 12:15:40;;;;;;;9.65;3.33;;;;;;;19.33;60.96;102014.50;5277997;28;20101;-64
2022/05/21 12:18:34;;;;;;;8.93;3.17;;;;;;;19.50;59.70;101999.38;5279453;28;20360;-64
2022/05/21 12:21:09;;;;;;;9.88;3.47;;;;;;;19.54;58.11;102002.59;5278758;28;20044;-64
2022/05/21 12:23:40;;;;;;;10.40;3.90;;;;;;;19.57;60.12;102007.72;5278793;28;20495;-64